Time;durP1;ratioP1;P1;durP2;ratioP2;P2;SDS_P1;SDS_P2;PMS_P1;PMS_P2;Temp;Humidity;BMP_temperature;BMP_pressure;BME280_temperature;BME280_humidity;BME280_pressure;Samples;Min_cycle;Max_cycle;Signal;HPM_P1;HPM_P2
2024/01/15 00:00:41;;;;;;;17.77;6.70;;;;;;;;;;4914371;29;20684;-51
2024/01/15 00:03:07;;;;;;;18.97;6.97;;;;;;;;;;4906567;29;20227;-52
2024/01/15 00:05:33;;;;;;;21.83;7.50;;;;;;;;;;4901929;29;20268;-54
2024/01/15 00:07:59;;;;;;;18.40;6.23;;;;;;;;;;4903575;29;20276;-55
2024/01/15 00:10:25;;;;;;;20.03;6.77;;;;;;;;;;4910983;29;20673;-53
2024/01/15 00:12:51;;;;;;;15.17;5.90;;;;;;;;;;4909312;29;20192;-53
2024/01/15 00:15:17;;;;;;;12.80;5.47;;;;;;;;;;4897934;29;20223;-53
2024/01/15 00:17:43;;;;;;;17.17;6.70;;;;;;;;;;4914092;29;20714;-54
2024/01/15 00:20:09;;;;;;;16.23;6.40;;;;;;;;;;4913920;29;20626;-51
2024/01/15 00:22:35;;;;;;;14.87;6.13;;;;;;;;;;4914181;29;20184;-52
2024/01/15 00:25:01;;;;;;;12.00;4.80;;;;;;;;;;4913373;29;20781;-54
2024/01/15 00:27:27;;;;;;;12.23;5.13;;;;;;;;;;4910784;29;20292;-55
2024/01/15 00:29:54;;;;;;;15.47;5.97;;;;;;;;;;4903164;29;20701;-53
2024/01/15 00:32:20;;;;;;;15.43;5.63;;;;;;;;;;4904798;29;20559;-54
2024/01/15 00:34:46;;;;;;;14.80;5.23;;;;;;;;;;4905388;29;20214;-54
2024/01/15 00:37:12;;;;;;;12.80;5.20;;;;;;;;;;4905961;29;20688;-52
2024/01/15 00:39:38;;;;;;;10.97;4.63;;;;;;;;;;4909642;29;20728;-52
2024/01/15 00:42:04;;;;;;;14.53;5.10;;;;;;;;;;4902694;29;20648;-53
2024/01/15 00:44:30;;;;;;;13.27;5.53;;;;;;;;;;4913788;29;20180;-54
2024/01/15 00:46:56;;;;;;;15.63;5.27;;;;;;;;;;4898793;29;20722;-54
2024/01/15 00:49:22;;;;;;;12.73;5.30;;;;;;;;;;4902502;29;20626;-54
2024/01/15 00:51:48;;;;;;;13.17;5.40;;;;;;;;;;4902990;29;20192;-50
2024/01/15 00:54:14;;;;;;;14.47;5.70;;;;;;;;;;4902444;29;20192;-54
2024/01/15 00:56:40;;;;;;;15.93;5.90;;;;;;;;;;4905727;29;20234;-54
2024/01/15 00:59:06;;;;;;;16.30;6.20;;;;;;;;;;4913501;29;20184;-52
2024/01/15 01:01:32;;;;;;;16.60;6.80;;;;;;;;;;4913579;29;20207;-52
2024/01/15 01:03:58;;;;;;;15.53;5.83;;;;;;;;;;4899247;29;20185;-56
2024/01/15 01:06:24;;;;;;;15.63;6.47;;;;;;;;;;4911960;29;20509;-52
2024/01/15 01:08:50;;;;;;;12.27;5.67;;;;;;;;;;4913527;29;20262;-52
2024/01/15 01:11:16;;;;;;;15.07;5.30;;;;;;;;;;4898000;29;20200;-51
2024/01/15 01:13:42;;;;;;;11.60;5.57;;;;;;;;;;4913340;29;20223;-52
2024/01/15 01:16:08;;;;;;;11.80;5.93;;;;;;;;;;4911853;29;20207;-53
2024/01/15 01:18:35;;;;;;;14.03;6.00;;;;;;;;;;4906297;29;20247;-52
2024/01/15 01:21:01;;;;;;;15.13;6.13;;;;;;;;;;4913333;29;20960;-52
2024/01/15 01:23:26;;;;;;;14.37;5.87;;;;;;;;;;4902740;29;20212;-50
2024/01/15 01:25:52;;;;;;;13.37;5.67;;;;;;;;;;4907903;29;20183;-54
2024/01/15 01:28:18;;;;;;;12.73;5.63;;;;;;;;;;4913273;29;20192;-52
2024/01/15 01:30:44;;;;;;;14.13;6.43;;;;;;;;;;4900382;29;20740;-55
2024/01/15 01:33:10;;;;;;;15.43;5.97;;;;;;;;;;4902205;29;20192;-53
2024/01/15 01:35:36;;;;;;;16.87;6.13;;;;;;;;;;4897972;29;20192;-53
2024/01/15 01:38:03;;;;;;;12.80;5.70;;;;;;;;;;4913166;29;20644;-52
2024/01/15 01:40:28;;;;;;;14.13;5.87;;;;;;;;;;4902306;29;20547;-56
2024/01/15 01:42:54;;;;;;;13.20;6.40;;;;;;;;;;4894281;29;20267;-52
2024/01/15 01:45:20;;;;;;;16.77;6.77;;;;;;;;;;4909144;29;20191;-56
2024/01/15 01:47:47;;;;;;;13.90;6.50;;;;;;;;;;4894397;29;20200;-52
2024/01/15 01:50:14;;;;;;;14.43;6.13;;;;;;;;;;4910711;29;20211;-53
2024/01/15 01:52:40;;;;;;;15.70;6.30;;;;;;;;;;4913089;29;20275;-52
2024/01/15 01:55:06;;;;;;;15.47;6.77;;;;;;;;;;4911055;29;20192;-52
2024/01/15 01:57:33;;;;;;;14.90;6.50;;;;;;;;;;4912955;29;20233;-53
2024/01/15 02:00:00;;;;;;;18.00;7.10;;;;;;;;;;4912851;29;20219;-51
2024/01/15 02:02:26;;;;;;;17.03;6.43;;;;;;;;;;4905057;29;20279;-53
2024/01/15 02:04:52;;;;;;;14.03;6.47;;;;;;;;;;4912575;29;20188;-54
2024/01/15 02:07:18;;;;;;;14.53;6.20;;;;;;;;;;4905432;29;20228;-52
2024/01/15 02:09:45;;;;;;;12.97;5.53;;;;;;;;;;4916634;29;20267;-51
2024/01/15 02:12:11;;;;;;;10.97;4.77;;;;;;;;;;4916244;29;20279;-54
2024/01/15 02:14:37;;;;;;;11.53;4.40;;;;;;;;;;4911916;29;20659;-53
2024/01/15 02:17:03;;;;;;;12.97;4.63;;;;;;;;;;4897303;29;20596;-52
2024/01/15 02:19:29;;;;;;;10.23;4.63;;;;;;;;;;4900429;29;20283;-56
2024/01/15 02:21:56;;;;;;;12.83;4.77;;;;;;;;;;4902082;29;20649;-54
2024/01/15 02:24:22;;;;;;;12.27;5.47;;;;;;;;;;4907366;29;20180;-52
2024/01/15 02:26:48;;;;;;;14.93;6.20;;;;;;;;;;4915507;29;20215;-55
2024/01/15 02:29:15;;;;;;;15.43;5.10;;;;;;;;;;4916080;29;20194;-52
2024/01/15 02:31:41;;;;;;;12.27;5.67;;;;;;;;;;4916100;29;20670;-54
2024/01/15 02:34:07;;;;;;;16.97;7.10;;;;;;;;;;4908116;29;20188;-54
2024/01/15 02:36:33;;;;;;;16.67;7.80;;;;;;;;;;4912051;29;20256;-52
2024/01/15 02:38:59;;;;;;;17.53;8.20;;;;;;;;;;4911943;29;20200;-54
2024/01/15 02:41:25;;;;;;;21.60;9.37;;;;;;;;;;4908000;29;20692;-54
2024/01/15 02:43:51;;;;;;;22.30;8.80;;;;;;;;;;4915862;29;20180;-54
2024/01/15 02:46:17;;;;;;;23.87;9.27;;;;;;;;;;4914966;29;20214;-54
2024/01/15 02:48:43;;;;;;;19.97;8.60;;;;;;;;;;4916178;29;20286;-53
2024/01/15 02:51:09;;;;;;;21.73;9.23;;;;;;;;;;4907358;29;20220;-49
2024/01/15 02:53:37;;;;;;;18.87;8.90;;;;;;;;;;4904620;29;20188;-56
2024/01/15 02:56:03;;;;;;;17.83;8.37;;;;;;;;;;4903942;29;20216;-51
2024/01/15 02:58:29;;;;;;;24.50;9.33;;;;;;;;;;4912576;29;20208;-53
2024/01/15 03:00:55;;;;;;;21.23;9.13;;;;;;;;;;4896703;29;20208;-54
2024/01/15 03:03:20;;;;;;;20.33;9.37;;;;;;;;;;4906500;29;20192;-57
2024/01/15 03:05:47;;;;;;;26.53;11.00;;;;;;;;;;4906921;29;20204;-53
2024/01/15 03:08:13;;;;;;;24.77;10.80;;;;;;;;;;4914096;29;20274;-53
2024/01/15 03:10:39;;;;;;;28.13;10.93;;;;;;;;;;4915776;29;20651;-52
2024/01/15 03:13:04;;;;;;;26.50;10.73;;;;;;;;;;4907603;29;20197;-52
2024/01/15 03:15:30;;;;;;;30.87;11.13;;;;;;;;;;4914507;29;20204;-51
2024/01/15 03:17:56;;;;;;;24.30;10.63;;;;;;;;;;4915297;29;20279;-53
2024/01/15 03:20:22;;;;;;;24.60;10.40;;;;;;;;;;4906824;29;20231;-51
2024/01/15 03:22:49;;;;;;;23.07;10.60;;;;;;;;;;4909828;29;21062;-54
2024/01/15 03:25:15;;;;;;;25.97;10.10;;;;;;;;;;4895525;29;20196;-49
2024/01/15 03:27:41;;;;;;;23.77;10.27;;;;;;;;;;4900599;29;20215;-51
2024/01/15 03:30:07;;;;;;;24.07;10.37;;;;;;;;;;4899245;29;20279;-51
2024/01/15 03:32:33;;;;;;;27.30;10.70;;;;;;;;;;4911576;29;20192;-51
2024/01/15 03:34:59;;;;;;;23.83;9.67;;;;;;;;;;4903374;29;20204;-55
2024/01/15 03:37:25;;;;;;;23.53;9.77;;;;;;;;;;4903656;29;20718;-51
2024/01/15 03:39:51;;;;;;;24.83;9.90;;;;;;;;;;4909742;29;20577;-52
2024/01/15 03:42:17;;;;;;;22.90;9.50;;;;;;;;;;4906668;29;20200;-52
2024/01/15 03:44:43;;;;;;;18.70;8.60;;;;;;;;;;4914413;29;20188;-54
2024/01/15 03:47:09;;;;;;;22.97;8.50;;;;;;;;;;4914194;29;20590;-52
2024/01/15 03:49:35;;;;;;;20.70;8.73;;;;;;;;;;4907315;29;20568;-51
2024/01/15 03:52:01;;;;;;;16.50;7.57;;;;;;;;;;4914691;29;20192;-53
2024/01/15 03:54:26;;;;;;;17.77;8.07;;;;;;;;;;4913059;29;20199;-52
2024/01/15 03:56:52;;;;;;;15.67;7.83;;;;;;;;;;4913882;29;20294;-55
2024/01/15 03:59:18;;;;;;;18.93;8.33;;;;;;;;;;4913001;29;20199;-52
2024/01/15 04:01:51;;;;;;;21.10;9.83;;;;;;;;;;4895785;29;20184;-52
2024/01/15 04:04:17;;;;;;;18.40;8.63;;;;;;;;;;4904917;29;20275;-56
2024/01/15 04:06:43;;;;;;;19.77;9.37;;;;;;;;;;4913278;29;20235;-53
2024/01/15 04:09:09;;;;;;;21.43;9.53;;;;;;;;;;4914414;29;20192;-52
2024/01/15 04:11:34;;;;;;;23.50;9.63;;;;;;;;;;4903137;29;20188;-52
2024/01/15 04:14:00;;;;;;;21.47;9.73;;;;;;;;;;4895431;29;20212;-52
2024/01/15 04:16:26;;;;;;;25.03;9.73;;;;;;;;;;4904925;29;20877;-51
2024/01/15 04:18:52;;;;;;;24.83;10.07;;;;;;;;;;4908387;29;20196;-53
2024/01/15 04:21:18;;;;;;;28.40;10.17;;;;;;;;;;4912281;29;20219;-51
2024/01/15 04:23:44;;;;;;;25.63;10.10;;;;;;;;;;4901492;29;20188;-52
2024/01/15 04:26:10;;;;;;;28.10;10.47;;;;;;;;;;4902553;29;20708;-52
2024/01/15 04:28:36;;;;;;;25.17;10.10;;;;;;;;;;4914272;29;20220;-52
2024/01/15 04:31:02;;;;;;;29.37;11.17;;;;;;;;;;4913987;29;20314;-52
2024/01/15 04:33:28;;;;;;;24.47;10.10;;;;;;;;;;4911126;29;20525;-50
2024/01/15 04:35:54;;;;;;;25.23;10.07;;;;;;;;;;4900523;29;20652;-51
2024/01/15 04:38:20;;;;;;;27.23;10.40;;;;;;;;;;4904091;29;20572;-49
2024/01/15 04:40:46;;;;;;;23.33;10.27;;;;;;;;;;4900021;29;20207;-54
2024/01/15 04:43:12;;;;;;;31.37;11.20;;;;;;;;;;4897977;29;20562;-52
2024/01/15 04:45:38;;;;;;;23.30;9.70;;;;;;;;;;4908926;29;20212;-51
2024/01/15 04:48:04;;;;;;;23.13;10.37;;;;;;;;;;4895031;29;20219;-53
2024/01/15 04:50:30;;;;;;;26.73;10.77;;;;;;;;;;4913425;29;20617;-52
2024/01/15 04:52:56;;;;;;;25.13;10.57;;;;;;;;;;4907394;29;20216;-55
2024/01/15 04:55:22;;;;;;;28.80;11.23;;;;;;;;;;4911501;29;20512;-52
2024/01/15 04:57:48;;;;;;;22.93;10.53;;;;;;;;;;4913780;29;20207;-51
2024/01/15 05:00:14;;;;;;;25.70;11.20;;;;;;;;;;4913450;29;20703;-50
2024/01/15 05:02:40;;;;;;;25.20;10.60;;;;;;;;;;4913770;29;20184;-49
2024/01/15 05:05:06;;;;;;;24.03;10.90;;;;;;;;;;4912859;29;20246;-50
2024/01/15 05:07:32;;;;;;;29.67;10.30;;;;;;;;;;4894465;29;20622;-49
2024/01/15 05:09:58;;;;;;;25.20;10.30;;;;;;;;;;4902354;29;20195;-49
2024/01/15 05:12:24;;;;;;;27.60;10.50;;;;;;;;;;4909959;29;20195;-48
2024/01/15 05:14:50;;;;;;;25.53;10.57;;;;;;;;;;4899766;29;20188;-48
2024/01/15 05:17:16;;;;;;;30.03;10.83;;;;;;;;;;4897622;29;20568;-52
2024/01/15 05:19:42;;;;;;;27.50;10.90;;;;;;;;;;4913372;29;20358;-49
2024/01/15 05:22:08;;;;;;;27.27;11.43;;;;;;;;;;4913226;29;20184;-52
2024/01/15 05:24:34;;;;;;;29.50;11.03;;;;;;;;;;4898246;29;20187;-50
2024/01/15 05:27:00;;;;;;;30.00;11.40;;;;;;;;;;4905769;29;20279;-49
2024/01/15 05:29:26;;;;;;;25.40;10.77;;;;;;;;;;4904625;29;20203;-50
2024/01/15 05:31:52;;;;;;;23.53;10.50;;;;;;;;;;4905689;29;20184;-52
2024/01/15 05:34:18;;;;;;;23.73;9.30;;;;;;;;;;4896098;29;20672;-53
2024/01/15 05:36:47;;;;;;;26.83;9.97;;;;;;;;;;4893817;29;20215;-53
2024/01/15 05:39:13;;;;;;;29.67;11.00;;;;;;;;;;4902621;29;20188;-54
2024/01/15 05:41:39;;;;;;;22.83;9.73;;;;;;;;;;4900120;29;20550;-52
2024/01/15 05:44:05;;;;;;;29.67;10.83;;;;;;;;;;4897639;29;20718;-48
2024/01/15 05:46:31;;;;;;;26.37;11.67;;;;;;;;;;4897262;29;20291;-51
2024/01/15 05:48:57;;;;;;;23.83;9.33;;;;;;;;;;4898405;29;20223;-54
2024/01/15 05:51:23;;;;;;;26.23;11.00;;;;;;;;;;4906260;29;20582;-49
2024/01/15 05:53:49;;;;;;;22.30;10.80;;;;;;;;;;4909071;29;20267;-48
2024/01/15 05:56:15;;;;;;;29.13;10.20;;;;;;;;;;4899675;29;20212;-50
2024/01/15 05:58:41;;;;;;;26.30;10.93;;;;;;;;;;4902203;29;20192;-52
2024/01/15 06:01:07;;;;;;;24.03;10.40;;;;;;;;;;4901080;29;20212;-51
2024/01/15 06:03:33;;;;;;;27.53;10.13;;;;;;;;;;4901131;29;20430;-49
2024/01/15 06:05:59;;;;;;;23.30;10.17;;;;;;;;;;4901598;29;20231;-50
2024/01/15 06:08:27;;;;;;;26.77;10.07;;;;;;;;;;4920896;29;20191;-49
2024/01/15 06:10:53;;;;;;;23.03;9.40;;;;;;;;;;4897893;29;20196;-49
2024/01/15 06:13:19;;;;;;;26.57;9.63;;;;;;;;;;4913222;29;20283;-51
2024/01/15 06:15:45;;;;;;;24.87;10.17;;;;;;;;;;4904754;29;20287;-52
2024/01/15 06:18:11;;;;;;;25.87;10.33;;;;;;;;;;4913734;29;20191;-52
2024/01/15 06:20:38;;;;;;;29.53;11.20;;;;;;;;;;4908323;29;20204;-52
2024/01/15 06:23:04;;;;;;;28.77;10.67;;;;;;;;;;4916500;29;20283;-52
2024/01/15 06:25:30;;;;;;;28.27;10.60;;;;;;;;;;4904884;29;20177;-51
2024/01/15 06:27:56;;;;;;;28.60;10.53;;;;;;;;;;4903250;29;20215;-52
2024/01/15 06:30:22;;;;;;;22.67;10.73;;;;;;;;;;4916017;29;20191;-52
2024/01/15 06:32:48;;;;;;;26.97;10.13;;;;;;;;;;4908350;29;20596;-53
2024/01/15 06:35:14;;;;;;;33.03;11.20;;;;;;;;;;4907420;29;20255;-51
2024/01/15 06:37:40;;;;;;;26.43;11.13;;;;;;;;;;4916252;29;20218;-50
2024/01/15 06:40:06;;;;;;;27.90;9.50;;;;;;;;;;4916226;29;20216;-53
2024/01/15 06:42:32;;;;;;;24.97;9.63;;;;;;;;;;4912636;29;20196;-52
2024/01/15 06:44:59;;;;;;;26.10;9.53;;;;;;;;;;4904272;29;20200;-51
2024/01/15 06:47:24;;;;;;;25.97;8.70;;;;;;;;;;4914829;29;20204;-52
2024/01/15 06:49:51;;;;;;;20.33;8.37;;;;;;;;;;4909010;29;20192;-54
2024/01/15 06:52:17;;;;;;;18.80;8.27;;;;;;;;;;4913685;29;20207;-51
2024/01/15 06:54:43;;;;;;;21.67;8.43;;;;;;;;;;4901756;29;20192;-51
2024/01/15 06:57:09;;;;;;;27.33;9.20;;;;;;;;;;4896770;29;20219;-53
2024/01/15 06:59:35;;;;;;;26.37;9.17;;;;;;;;;;4907805;29;20675;-53
2024/01/15 07:02:01;;;;;;;21.53;9.03;;;;;;;;;;4915498;29;20192;-49
2024/01/15 07:04:27;;;;;;;24.70;10.20;;;;;;;;;;4912860;29;20219;-51
2024/01/15 07:06:53;;;;;;;25.03;10.80;;;;;;;;;;4902017;29;20227;-54
2024/01/15 07:09:19;;;;;;;30.33;10.73;;;;;;;;;;4907658;29;20566;-54
2024/01/15 07:11:46;;;;;;;23.83;9.37;;;;;;;;;;4915543;29;20212;-51
2024/01/15 07:14:12;;;;;;;25.03;9.83;;;;;;;;;;4907314;29;20674;-53
2024/01/15 07:16:38;;;;;;;20.50;8.50;;;;;;;;;;4914753;29;20216;-52
2024/01/15 07:19:04;;;;;;;20.03;9.70;;;;;;;;;;4915340;29;20215;-54
2024/01/15 07:21:30;;;;;;;20.80;8.77;;;;;;;;;;4896533;29;20672;-51
2024/01/15 07:23:56;;;;;;;24.13;9.13;;;;;;;;;;4910371;29;20199;-54
2024/01/15 07:26:22;;;;;;;24.80;8.63;;;;;;;;;;4906606;29;20220;-52
2024/01/15 07:28:48;;;;;;;21.63;7.83;;;;;;;;;;4915070;29;20220;-53
2024/01/15 07:31:16;;;;;;;21.97;7.50;;;;;;;;;;4906428;29;20196;-51
2024/01/15 07:33:42;;;;;;;20.00;7.60;;;;;;;;;;4900408;29;20192;-53
2024/01/15 07:36:08;;;;;;;19.07;7.47;;;;;;;;;;4906607;29;20286;-49
2024/01/15 07:38:34;;;;;;;16.77;7.40;;;;;;;;;;4904000;29;20830;-51
2024/01/15 07:41:00;;;;;;;15.87;6.83;;;;;;;;;;4910606;29;20306;-53
2024/01/15 07:43:27;;;;;;;20.67;7.23;;;;;;;;;;4914676;29;20215;-51
2024/01/15 07:45:53;;;;;;;20.23;7.57;;;;;;;;;;4913896;29;20638;-51
2024/01/15 07:48:20;;;;;;;15.80;7.07;;;;;;;;;;4913290;29;20215;-49
2024/01/15 07:50:46;;;;;;;15.87;6.33;;;;;;;;;;4908614;29;20230;-51
2024/01/15 07:53:12;;;;;;;17.87;7.17;;;;;;;;;;4914531;29;20223;-50
2024/01/15 07:55:38;;;;;;;21.43;7.90;;;;;;;;;;4914188;29;20184;-50
2024/01/15 07:58:04;;;;;;;21.07;6.60;;;;;;;;;;4906697;29;20211;-52
2024/01/15 08:00:30;;;;;;;15.83;7.20;;;;;;;;;;4914306;29;20260;-52
2024/01/15 08:02:56;;;;;;;27.37;9.60;;;;;;;;;;4906623;29;20184;-50
2024/01/15 08:05:22;;;;;;;21.27;7.10;;;;;;;;;;4911857;29;20188;-52
2024/01/15 08:07:48;;;;;;;20.20;8.10;;;;;;;;;;4908224;29;20215;-54
2024/01/15 08:10:14;;;;;;;34.20;10.47;;;;;;;;;;4913641;29;20235;-50
2024/01/15 08:12:40;;;;;;;23.27;8.33;;;;;;;;;;4907021;29;20192;-51
2024/01/15 08:15:06;;;;;;;16.00;6.97;;;;;;;;;;4905987;29;20196;-54
2024/01/15 08:17:32;;;;;;;11.37;5.37;;;;;;;;;;4906595;29;20226;-54
2024/01/15 08:20:00;;;;;;;12.53;5.20;;;;;;;;;;4907826;29;20275;-51
2024/01/15 08:22:26;;;;;;;8.53;4.93;;;;;;;;;;4897322;29;20611;-55
2024/01/15 08:24:53;;;;;;;9.30;5.13;;;;;;;;;;4905791;29;20347;-53
2024/01/15 08:27:19;;;;;;;10.87;5.20;;;;;;;;;;4911297;29;20303;-54
2024/01/15 08:29:45;;;;;;;11.60;5.13;;;;;;;;;;4912582;29;20688;-55
2024/01/15 08:32:14;;;;;;;11.77;5.37;;;;;;;;;;4901851;29;20207;-53
2024/01/15 08:34:40;;;;;;;13.50;5.53;;;;;;;;;;4901353;29;20224;-53
2024/01/15 08:37:06;;;;;;;10.30;5.30;;;;;;;;;;4909536;29;20597;-54
2024/01/15 08:39:32;;;;;;;11.23;5.20;;;;;;;;;;4904932;29;20191;-52
2024/01/15 08:41:58;;;;;;;10.60;4.67;;;;;;;;;;4906633;29;20576;-50
2024/01/15 08:44:24;;;;;;;12.67;4.70;;;;;;;;;;4901677;29;20192;-53
2024/01/15 08:46:50;;;;;;;10.00;4.40;;;;;;;;;;4901938;29;20656;-54
2024/01/15 08:49:15;;;;;;;8.43;4.37;;;;;;;;;;4909385;29;20183;-50
2024/01/15 08:51:41;;;;;;;11.47;3.77;;;;;;;;;;4904087;29;20199;-52
2024/01/15 08:54:08;;;;;;;10.33;4.37;;;;;;;;;;4899879;29;20187;-52
2024/01/15 08:56:34;;;;;;;7.97;4.17;;;;;;;;;;4912383;29;20279;-53
2024/01/15 08:59:00;;;;;;;10.57;4.63;;;;;;;;;;4899167;29;20192;-54
2024/01/15 09:01:26;;;;;;;11.97;5.47;;;;;;;;;;4902007;29;20792;-53
2024/01/15 09:03:52;;;;;;;13.93;5.03;;;;;;;;;;4907735;29;20661;-54
2024/01/15 09:06:18;;;;;;;11.43;4.43;;;;;;;;;;4912096;29;20334;-55
2024/01/15 09:08:45;;;;;;;8.40;4.27;;;;;;;;;;4907449;29;20195;-51
2024/01/15 09:11:12;;;;;;;10.87;4.67;;;;;;;;;;4897263;29;20192;-54
2024/01/15 09:13:38;;;;;;;11.97;4.13;;;;;;;;;;4901489;29;20193;-54
2024/01/15 09:16:04;;;;;;;11.60;4.57;;;;;;;;;;4900344;29;20220;-54
2024/01/15 09:18:30;;;;;;;10.27;4.20;;;;;;;;;;4902207;29;20318;-56
2024/01/15 09:20:56;;;;;;;9.27;4.77;;;;;;;;;;4900238;29;20243;-53
2024/01/15 09:23:22;;;;;;;9.87;4.73;;;;;;;;;;4911705;29;20227;-52
2024/01/15 09:25:48;;;;;;;9.93;4.30;;;;;;;;;;4909754;29;20686;-55
2024/01/15 09:28:14;;;;;;;12.73;4.90;;;;;;;;;;4912242;29;20213;-54
2024/01/15 09:30:40;;;;;;;10.50;4.53;;;;;;;;;;4894004;29;20759;-52
2024/01/15 09:33:06;;;;;;;10.90;4.60;;;;;;;;;;4909062;29;20188;-52
2024/01/15 09:35:32;;;;;;;9.23;4.10;;;;;;;;;;4911421;29;20190;-54
2024/01/15 09:37:58;;;;;;;10.10;4.50;;;;;;;;;;4896924;29;20204;-52
2024/01/15 09:40:25;;;;;;;12.33;4.40;;;;;;;;;;4902507;29;20305;-55
2024/01/15 09:42:52;;;;;;;10.03;4.73;;;;;;;;;;4911771;29;20596;-53
2024/01/15 09:45:18;;;;;;;13.80;5.50;;;;;;;;;;4913028;29;20198;-52
2024/01/15 09:47:45;;;;;;;14.00;6.37;;;;;;;;;;4914806;29;20309;-51
2024/01/15 09:50:11;;;;;;;23.07;6.40;;;;;;;;;;4916221;29;20203;-53
2024/01/15 09:52:37;;;;;;;15.50;6.60;;;;;;;;;;4913120;29;20297;-52
2024/01/15 09:55:05;;;;;;;20.13;7.70;;;;;;;;;;4914043;29;20187;-53
2024/01/15 09:57:31;;;;;;;26.83;12.17;;;;;;;;;;4914922;29;20224;-52
2024/01/15 09:59:58;;;;;;;21.73;10.30;;;;;;;;;;4916154;29;20641;-54
2024/01/15 10:02:24;;;;;;;16.53;7.20;;;;;;;;;;4912303;29;20294;-52
2024/01/15 10:04:50;;;;;;;13.43;7.57;;;;;;;;;;4918433;29;20290;-54
2024/01/15 10:07:19;;;;;;;11.37;5.40;;;;;;;;;;4914658;29;20319;-52
2024/01/15 10:09:46;;;;;;;14.77;5.97;;;;;;;;;;4912437;29;20235;-52
2024/01/15 10:12:12;;;;;;;13.93;6.00;;;;;;;;;;4914114;29;20278;-57
2024/01/15 10:14:38;;;;;;;14.60;5.60;;;;;;;;;;4912329;29;20707;-52
2024/01/15 10:17:13;;;;;;;14.20;6.33;;;;;;;;;;4915006;29;20567;-56
2024/01/15 10:19:41;;;;;;;16.80;6.73;;;;;;;;;;4912569;29;20221;-52
2024/01/15 10:22:08;;;;;;;18.53;7.20;;;;;;;;;;4915169;29;20191;-53
2024/01/15 10:24:35;;;;;;;17.83;7.37;;;;;;;;;;4915653;29;20303;-55
2024/01/15 10:27:06;;;;;;;18.30;6.40;;;;;;;;;;4911072;29;20235;-51
2024/01/15 10:29:32;;;;;;;17.93;6.23;;;;;;;;;;4913392;29;20192;-50
2024/01/15 10:31:59;;;;;;;15.17;6.43;;;;;;;;;;4916402;29;20464;-54
2024/01/15 10:34:25;;;;;;;15.87;7.07;;;;;;;;;;4919220;29;20199;-52
2024/01/15 10:36:57;;;;;;;16.47;7.40;;;;;;;;;;4912111;29;20321;-49
2024/01/15 10:39:24;;;;;;;21.87;7.87;;;;;;;;;;4918200;29;21130;-56
2024/01/15 10:41:50;;;;;;;22.10;7.50;;;;;;;;;;4917334;29;20275;-54
2024/01/15 10:44:17;;;;;;;21.47;8.03;;;;;;;;;;4918237;29;20187;-53
2024/01/15 10:46:44;;;;;;;21.10;8.80;;;;;;;;;;4915993;29;20203;-52
2024/01/15 10:49:11;;;;;;;23.27;8.27;;;;;;;;;;4921907;29;20243;-52
2024/01/15 10:51:37;;;;;;;18.33;7.10;;;;;;;;;;4922647;29;20666;-53
2024/01/15 10:54:04;;;;;;;19.73;6.83;;;;;;;;;;4918684;29;20218;-56
2024/01/15 10:56:32;;;;;;;14.50;6.63;;;;;;;;;;4915497;29;20224;-54
2024/01/15 10:58:58;;;;;;;16.47;7.20;;;;;;;;;;4907398;29;20282;-54
2024/01/15 11:01:25;;;;;;;18.67;6.90;;;;;;;;;;4904495;29;20676;-56
2024/01/15 11:03:50;;;;;;;17.30;7.03;;;;;;;;;;4908478;29;20184;-52
2024/01/15 11:06:19;;;;;;;17.73;6.97;;;;;;;;;;4905084;29;20216;-51
2024/01/15 11:08:45;;;;;;;16.97;6.90;;;;;;;;;;4903409;29;20193;-53
2024/01/15 11:11:11;;;;;;;16.67;6.77;;;;;;;;;;4902858;29;20223;-52
2024/01/15 11:13:37;;;;;;;20.10;7.17;;;;;;;;;;4906638;29;20199;-53
2024/01/15 11:16:06;;;;;;;19.83;7.10;;;;;;;;;;4899500;29;20248;-51
2024/01/15 11:18:35;;;;;;;14.07;6.33;;;;;;;;;;4906498;29;20541;-50
2024/01/15 11:21:20;;;;;;;13.67;6.07;;;;;;;;;;4906433;29;20346;-49
2024/01/15 11:23:50;;;;;;;19.67;6.97;;;;;;;;;;4913914;29;20186;-53
2024/01/15 11:26:28;;;;;;;21.67;7.20;;;;;;;;;;4913273;29;20214;-53
2024/01/15 11:29:02;;;;;;;27.20;9.10;;;;;;;;;;4913941;29;20242;-53
2024/01/15 11:31:29;;;;;;;21.37;7.20;;;;;;;;;;4911641;29;20675;-51
2024/01/15 11:33:55;;;;;;;20.17;7.23;;;;;;;;;;4908181;29;20184;-55
2024/01/15 11:36:22;;;;;;;15.27;6.60;;;;;;;;;;4904233;29;20215;-52
2024/01/15 11:38:48;;;;;;;13.60;5.60;;;;;;;;;;4894937;29;20275;-55
2024/01/15 11:41:15;;;;;;;15.97;5.70;;;;;;;;;;4909899;29;20294;-52
2024/01/15 11:43:42;;;;;;;12.37;5.23;;;;;;;;;;4913577;29;20250;-55
2024/01/15 11:46:12;;;;;;;12.07;5.00;;;;;;;;;;4905392;29;20374;-51
2024/01/15 11:48:48;;;;;;;10.23;4.53;;;;;;;;;;4895124;29;20210;-52
2024/01/15 11:51:15;;;;;;;11.10;5.00;;;;;;;;;;4910509;29;20179;-55
2024/01/15 11:53:48;;;;;;;12.70;4.63;;;;;;;;;;4909936;29;20704;-55
2024/01/15 11:56:17;;;;;;;11.57;4.30;;;;;;;;;;4905639;29;20212;-52
2024/01/15 11:58:43;;;;;;;6.73;3.50;;;;;;;;;;4916727;29;20196;-53
2024/01/15 12:01:11;;;;;;;11.40;3.93;;;;;;;;;;4914418;29;20310;-53
2024/01/15 12:03:37;;;;;;;7.57;3.63;;;;;;;;;;4916542;29;20712;-53
2024/01/15 12:06:06;;;;;;;6.50;3.57;;;;;;;;;;4919306;29;20211;-52
2024/01/15 12:08:32;;;;;;;5.40;2.87;;;;;;;;;;4915493;29;20283;-52
2024/01/15 12:10:58;;;;;;;5.43;2.83;;;;;;;;;;4900863;29;20299;-52
2024/01/15 12:13:24;;;;;;;5.07;2.90;;;;;;;;;;4910872;29;20200;-53
2024/01/15 12:15:50;;;;;;;7.07;2.80;;;;;;;;;;4905294;29;21221;-52
2024/01/15 12:18:17;;;;;;;5.97;2.53;;;;;;;;;;4916204;29;20682;-52
2024/01/15 12:20:46;;;;;;;4.87;2.80;;;;;;;;;;4914768;29;20222;-56
2024/01/15 12:23:13;;;;;;;5.77;3.00;;;;;;;;;;4916368;29;20202;-52
2024/01/15 12:25:39;;;;;;;4.40;2.53;;;;;;;;;;4912891;29;20452;-52
2024/01/15 12:28:06;;;;;;;4.73;2.60;;;;;;;;;;4919026;29;20207;-52
2024/01/15 12:30:33;;;;;;;6.63;2.73;;;;;;;;;;4913857;29;20309;-56
2024/01/15 12:33:03;;;;;;;4.70;2.47;;;;;;;;;;4917166;29;20196;-52
2024/01/15 12:35:30;;;;;;;4.87;2.30;;;;;;;;;;4914633;29;20206;-53
2024/01/15 12:37:56;;;;;;;5.93;2.67;;;;;;;;;;4916569;29;20227;-54
2024/01/15 12:40:22;;;;;;;3.30;2.23;;;;;;;;;;4915924;29;20219;-52
2024/01/15 12:42:48;;;;;;;5.00;1.90;;;;;;;;;;4915123;29;20264;-54
2024/01/15 12:45:15;;;;;;;3.63;2.43;;;;;;;;;;4914471;29;20180;-54
2024/01/15 12:47:41;;;;;;;3.37;2.20;;;;;;;;;;4917929;29;20769;-50
2024/01/15 12:50:08;;;;;;;3.90;2.30;;;;;;;;;;4916237;29;20190;-53
2024/01/15 12:52:34;;;;;;;2.03;1.63;;;;;;;;;;4917043;29;20223;-50
2024/01/15 12:55:00;;;;;;;4.47;1.83;;;;;;;;;;4916475;29;20197;-52
2024/01/15 12:57:26;;;;;;;3.83;1.90;;;;;;;;;;4917369;29;20215;-51
2024/01/15 12:59:55;;;;;;;3.37;2.20;;;;;;;;;;4915370;29;20286;-55
2024/01/15 13:02:21;;;;;;;2.83;1.93;;;;;;;;;;4917103;29;20211;-52
2024/01/15 13:04:47;;;;;;;4.77;2.83;;;;;;;;;;4911248;29;20207;-51
2024/01/15 13:07:13;;;;;;;4.37;2.43;;;;;;;;;;4915996;29;20222;-52
2024/01/15 13:09:39;;;;;;;4.77;2.70;;;;;;;;;;4913884;29;20192;-51
2024/01/15 13:12:05;;;;;;;4.77;2.80;;;;;;;;;;4911770;29;20219;-53
2024/01/15 13:14:31;;;;;;;7.70;2.80;;;;;;;;;;4916344;29;20203;-53
2024/01/15 13:16:59;;;;;;;5.93;2.70;;;;;;;;;;4913291;29;20234;-53
2024/01/15 13:19:25;;;;;;;6.63;2.93;;;;;;;;;;4918219;29;20485;-52
2024/01/15 13:21:51;;;;;;;4.87;3.07;;;;;;;;;;4915582;29;20225;-52
2024/01/15 13:24:18;;;;;;;4.50;2.80;;;;;;;;;;4914502;29;20515;-53
2024/01/15 13:26:44;;;;;;;9.47;3.13;;;;;;;;;;4915342;29;20657;-53
2024/01/15 13:29:10;;;;;;;7.70;3.17;;;;;;;;;;4915788;29;20194;-54
2024/01/15 13:31:36;;;;;;;6.33;3.47;;;;;;;;;;4917868;29;20659;-52
2024/01/15 13:34:03;;;;;;;13.80;3.40;;;;;;;;;;4916064;29;20286;-52
2024/01/15 13:36:29;;;;;;;5.27;3.10;;;;;;;;;;4909138;29;20374;-52
2024/01/15 13:38:55;;;;;;;9.13;3.27;;;;;;;;;;4912209;29;20195;-52
2024/01/15 13:41:27;;;;;;;9.93;3.73;;;;;;;;;;4911900;29;20303;-52
2024/01/15 13:43:54;;;;;;;8.83;3.60;;;;;;;;;;4902930;29;20188;-52
2024/01/15 13:46:21;;;;;;;9.13;3.77;;;;;;;;;;4911467;29;20207;-51
2024/01/15 13:48:47;;;;;;;10.00;3.87;;;;;;;;;;4910521;29;20207;-51
2024/01/15 13:51:13;;;;;;;13.93;4.37;;;;;;;;;;4914184;29;20186;-53
2024/01/15 13:53:39;;;;;;;10.70;4.03;;;;;;;;;;4911587;29;20691;-51
2024/01/15 13:56:06;;;;;;;10.23;4.37;;;;;;;;;;4913617;29;20593;-53
2024/01/15 13:58:35;;;;;;;6.00;3.80;;;;;;;;;;4912581;29;20195;-52
2024/01/15 14:01:04;;;;;;;11.37;4.00;;;;;;;;;;4916265;29;20601;-50
2024/01/15 14:03:30;;;;;;;12.80;4.40;;;;;;;;;;4913780;29;20198;-52
2024/01/15 14:05:56;;;;;;;10.97;4.70;;;;;;;;;;4918150;29;20203;-52
2024/01/15 14:08:22;;;;;;;9.50;4.70;;;;;;;;;;4915077;29;20274;-52
2024/01/15 14:10:48;;;;;;;7.53;4.17;;;;;;;;;;4898416;29;20211;-52
2024/01/15 14:13:13;;;;;;;7.23;4.23;;;;;;;;;;4899557;29;20529;-53
2024/01/15 14:15:40;;;;;;;13.57;5.03;;;;;;;;;;4914123;29;20259;-55
2024/01/15 14:18:06;;;;;;;10.27;5.07;;;;;;;;;;4914749;29;20187;-52
2024/01/15 14:20:32;;;;;;;8.97;4.90;;;;;;;;;;4907522;29;20219;-51
2024/01/15 14:22:58;;;;;;;12.27;4.37;;;;;;;;;;4907478;29;20222;-53